sensor_id;sensor_type;location;lat;lon;timestamp;temperature;humidity
13978;DHT22;7063;49.260;8.636;2022-12-18T00:02:13;-7.00;99.90
13978;DHT22;7063;49.260;8.636;2022-12-18T00:04:38;-7.00;99.90
13978;DHT22;7063;49.260;8.636;2022-12-18T00:07:04;-6.90;99.90
13978;DHT22;7063;49.260;8.636;2022-12-18T00:09:29;-7.00;99.90
13978;DHT22;7063;49.260;8.636;2022-12-18T00:11:55;-7.00;99.90
13978;DHT22;7063;49.260;8.636;2022-12-18T00:14:21;-6.90;99.90
13978;DHT22;7063;49.260;8.636;2022-12-18T00:16:47;-7.00;99.90
13978;DHT22;7063;49.260;8.636;2022-12-18T00:19:14;-7.00;99.90
13978;DHT22;7063;49.260;8.636;2022-12-18T00:21:40;-7.00;99.90
13978;DHT22;7063;49.260;8.636;2022-12-18T00:24:06;-7.00;99.90
13978;DHT22;7063;49.260;8.636;2022-12-18T00:26:34;-7.10;99.90
13978;DHT22;7063;49.260;8.636;2022-12-18T00:29:06;-7.00;99.90
13978;DHT22;7063;49.260;8.636;2022-12-18T00:31:32;-7.00;99.90
13978;DHT22;7063;49.260;8.636;2022-12-18T00:33:58;-6.90;99.90
13978;DHT22;7063;49.260;8.636;2022-12-18T00:36:27;-7.00;99.90
13978;DHT22;7063;49.260;8.636;2022-12-18T00:38:58;-7.00;99.90
13978;DHT22;7063;49.260;8.636;2022-12-18T00:41:24;-7.10;99.90
13978;DHT22;7063;49.260;8.636;2022-12-18T00:44:11;-7.00;99.90
13978;DHT22;7063;49.260;8.636;2022-12-18T00:46:37;-7.00;99.90
13978;DHT22;7063;49.260;8.636;2022-12-18T00:49:03;-6.90;99.90
13978;DHT22;7063;49.260;8.636;2022-12-18T00:51:28;-6.90;99.90
13978;DHT22;7063;49.260;8.636;2022-12-18T00:53:54;-7.00;99.90
13978;DHT22;7063;49.260;8.636;2022-12-18T00:56:20;-6.90;99.90
13978;DHT22;7063;49.260;8.636;2022-12-18T00:58:45;-6.90;99.90
13978;DHT22;7063;49.260;8.636;2022-12-18T01:01:11;-6.90;99.90
13978;DHT22;7063;49.260;8.636;2022-12-18T01:03:36;-7.00;99.90
13978;DHT22;7063;49.260;8.636;2022-12-18T01:06:10;-7.00;99.90
13978;DHT22;7063;49.260;8.636;2022-12-18T01:08:37;-7.00;99.90
13978;DHT22;7063;49.260;8.636;2022-12-18T01:11:15;-7.00;99.90
13978;DHT22;7063;49.260;8.636;2022-12-18T01:13:41;-7.00;99.90
13978;DHT22;7063;49.260;8.636;2022-12-18T01:16:07;-7.00;99.90
13978;DHT22;7063;49.260;8.636;2022-12-18T01:18:34;-7.00;99.90
13978;DHT22;7063;49.260;8.636;2022-12-18T01:21:00;-7.00;99.90
13978;DHT22;7063;49.260;8.636;2022-12-18T01:23:30;-7.00;99.90
13978;DHT22;7063;49.260;8.636;2022-12-18T01:25:55;-7.00;99.90
13978;DHT22;7063;49.260;8.636;2022-12-18T01:28:21;-7.00;99.90
13978;DHT22;7063;49.260;8.636;2022-12-18T01:30:46;-7.10;99.90
13978;DHT22;7063;49.260;8.636;2022-12-18T01:33:12;-7.10;99.90
13978;DHT22;7063;49.260;8.636;2022-12-18T01:35:42;-7.00;99.90
13978;DHT22;7063;49.260;8.636;2022-12-18T01:38:08;-7.00;99.90
13978;DHT22;7063;49.260;8.636;2022-12-18T01:40:33;-7.00;99.90
13978;DHT22;7063;49.260;8.636;2022-12-18T01:42:59;-7.00;99.90
13978;DHT22;7063;49.260;8.636;2022-12-18T01:45:30;-7.00;99.90
13978;DHT22;7063;49.260;8.636;2022-12-18T01:48:02;-7.00;99.90
13978;DHT22;7063;49.260;8.636;2022-12-18T01:50:38;-7.10;99.90
13978;DHT22;7063;49.260;8.636;2022-12-18T01:55:45;-7.10;99.90
13978;DHT22;7063;49.260;8.636;2022-12-18T01:58:11;-7.00;99.90
13978;DHT22;7063;49.260;8.636;2022-12-18T02:00:36;-7.10;99.90
13978;DHT22;7063;49.260;8.636;2022-12-18T02:03:02;-7.10;99.90
13978;DHT22;7063;49.260;8.636;2022-12-18T02:08:36;-7.10;99.90
13978;DHT22;7063;49.260;8.636;2022-12-18T02:11:07;-7.20;99.90
13978;DHT22;7063;49.260;8.636;2022-12-18T02:13:56;-7.10;99.90
13978;DHT22;7063;49.260;8.636;2022-12-18T02:25:06;-7.20;99.90
13978;DHT22;7063;49.260;8.636;2022-12-18T02:27:36;-7.20;99.90
13978;DHT22;7063;49.260;8.636;2022-12-18T02:30:03;-7.20;99.90
13978;DHT22;7063;49.260;8.636;2022-12-18T02:32:35;-7.10;99.90
13978;DHT22;7063;49.260;8.636;2022-12-18T02:35:05;-7.20;99.90
13978;DHT22;7063;49.260;8.636;2022-12-18T02:37:32;-7.20;99.90
13978;DHT22;7063;49.260;8.636;2022-12-18T02:39:59;-7.20;99.90
13978;DHT22;7063;49.260;8.636;2022-12-18T02:42:26;-7.20;99.90
13978;DHT22;7063;49.260;8.636;2022-12-18T02:44:53;-7.20;99.90
13978;DHT22;7063;49.260;8.636;2022-12-18T02:47:21;-7.10;99.90
13978;DHT22;7063;49.260;8.636;2022-12-18T02:50:24;-7.20;99.90
13978;DHT22;7063;49.260;8.636;2022-12-18T02:53:06;-7.10;99.90
13978;DHT22;7063;49.260;8.636;2022-12-18T03:00:43;-7.30;99.90
13978;DHT22;7063;49.260;8.636;2022-12-18T03:03:24;-7.30;99.90
13978;DHT22;7063;49.260;8.636;2022-12-18T03:06:10;-7.20;99.90
13978;DHT22;7063;49.260;8.636;2022-12-18T03:08:44;-7.20;99.90
13978;DHT22;7063;49.260;8.636;2022-12-18T03:11:13;-7.20;99.90
13978;DHT22;7063;49.260;8.636;2022-12-18T03:13:43;-7.20;99.90
13978;DHT22;7063;49.260;8.636;2022-12-18T03:16:12;-7.20;99.90
13978;DHT22;7063;49.260;8.636;2022-12-18T03:18:48;-7.20;99.90
13978;DHT22;7063;49.260;8.636;2022-12-18T03:21:19;-7.30;99.90
13978;DHT22;7063;49.260;8.636;2022-12-18T03:23:49;-7.30;99.90
13978;DHT22;7063;49.260;8.636;2022-12-18T03:26:22;-7.30;99.90
13978;DHT22;7063;49.260;8.636;2022-12-18T03:29:26;-7.30;99.90
13978;DHT22;7063;49.260;8.636;2022-12-18T03:31:51;-7.30;99.90
13978;DHT22;7063;49.260;8.636;2022-12-18T03:34:31;-7.30;99.90
13978;DHT22;7063;49.260;8.636;2022-12-18T03:36:57;-7.40;99.90
13978;DHT22;7063;49.260;8.636;2022-12-18T03:39:24;-7.40;99.90
13978;DHT22;7063;49.260;8.636;2022-12-18T03:42:18;-7.50;99.90
13978;DHT22;7063;49.260;8.636;2022-12-18T03:50:49;-7.50;99.90
13978;DHT22;7063;49.260;8.636;2022-12-18T04:00:13;-7.90;99.90
13978;DHT22;7063;49.260;8.636;2022-12-18T04:02:44;-7.90;99.90
13978;DHT22;7063;49.260;8.636;2022-12-18T04:05:10;-8.00;99.90
13978;DHT22;7063;49.260;8.636;2022-12-18T04:07:38;-8.00;99.90
13978;DHT22;7063;49.260;8.636;2022-12-18T04:10:06;-8.00;99.90
13978;DHT22;7063;49.260;8.636;2022-12-18T04:12:32;-8.00;99.90
13978;DHT22;7063;49.260;8.636;2022-12-18T04:14:57;-7.90;99.90
13978;DHT22;7063;49.260;8.636;2022-12-18T04:17:23;-7.80;99.90
13978;DHT22;7063;49.260;8.636;2022-12-18T04:19:49;-7.90;99.90
13978;DHT22;7063;49.260;8.636;2022-12-18T04:22:15;-7.90;99.90
13978;DHT22;7063;49.260;8.636;2022-12-18T04:24:40;-7.90;99.90
13978;DHT22;7063;49.260;8.636;2022-12-18T04:27:07;-7.90;99.90
13978;DHT22;7063;49.260;8.636;2022-12-18T04:31:58;-7.90;99.90
13978;DHT22;7063;49.260;8.636;2022-12-18T04:34:24;-7.90;99.90
13978;DHT22;7063;49.260;8.636;2022-12-18T04:36:50;-7.90;99.90
13978;DHT22;7063;49.260;8.636;2022-12-18T04:39:18;-7.90;99.90
13978;DHT22;7063;49.260;8.636;2022-12-18T04:41:44;-7.60;99.90
13978;DHT22;7063;49.260;8.636;2022-12-18T04:44:09;-7.30;99.90
13978;DHT22;7063;49.260;8.636;2022-12-18T04:46:35;-7.20;99.90
13978;DHT22;7063;49.260;8.636;2022-12-18T04:49:00;-7.10;99.90
13978;DHT22;7063;49.260;8.636;2022-12-18T04:51:26;-7.00;99.90
13978;DHT22;7063;49.260;8.636;2022-12-18T04:53:51;-6.80;99.90
13978;DHT22;7063;49.260;8.636;2022-12-18T04:56:17;-6.60;99.90
13978;DHT22;7063;49.260;8.636;2022-12-18T04:58:44;-6.60;99.90
13978;DHT22;7063;49.260;8.636;2022-12-18T05:01:12;-6.60;99.90
13978;DHT22;7063;49.260;8.636;2022-12-18T05:03:38;-6.50;99.90
13978;DHT22;7063;49.260;8.636;2022-12-18T05:06:04;-6.40;99.90
13978;DHT22;7063;49.260;8.636;2022-12-18T05:08:31;-6.30;99.90
13978;DHT22;7063;49.260;8.636;2022-12-18T05:11:11;-6.30;99.90
13978;DHT22;7063;49.260;8.636;2022-12-18T05:13:37;-6.30;99.90
13978;DHT22;7063;49.260;8.636;2022-12-18T05:16:03;-6.30;99.90
13978;DHT22;7063;49.260;8.636;2022-12-18T05:18:29;-6.30;99.90
13978;DHT22;7063;49.260;8.636;2022-12-18T06:24:24;-6.30;99.90
13978;DHT22;7063;49.260;8.636;2022-12-18T08:02:06;-5.90;99.90
13978;DHT22;7063;49.260;8.636;2022-12-18T08:04:32;-4.50;99.90
13978;DHT22;7063;49.260;8.636;2022-12-18T08:06:57;-4.50;99.90
13978;DHT22;7063;49.260;8.636;2022-12-18T11:06:11;-4.50;99.90
13978;DHT22;7063;49.260;8.636;2022-12-18T11:08:37;-2.80;99.90
13978;DHT22;7063;49.260;8.636;2022-12-18T11:11:25;-2.70;99.90
13978;DHT22;7063;49.260;8.636;2022-12-18T11:13:58;-2.70;99.90
13978;DHT22;7063;49.260;8.636;2022-12-18T11:16:25;-2.70;99.90
13978;DHT22;7063;49.260;8.636;2022-12-18T12:46:27;-2.70;99.90
13978;DHT22;7063;49.260;8.636;2022-12-18T12:48:56;-1.50;98.50
